KDTO

Denton Enterprise Airport

Denton, Texas, USA
METAR KDTO 161153Z AUTO 13003KT 10SM CLR 02/M01 A3022 RMK AO2 SLP233 T00221006 10028 21011 53001
Observed Flight Rules
Dec-16 @ 11:53 UTC (51 minutes ago) Visual Flight Rules
Wind Visibility Clouds
130° at 3 knots 10 miles
  • Clear skies
Temperatures Readings
Current 2°C / 36°F
Dewpoint -1°C / 30°F
Humidity 81%
Altimeter 30.22" Hg
Pressure 1023.3 hPa
Elevation 196
METAR KDTO 161153Z AUTO 13003KT 10SM CLR 02/M01 A3022 RMK AO2 SLP233 T00221006 10028 21011 53001
Observed Flight Rules
Dec-16 @ 11:53 UTC
(51 minutes ago)
VFR
Wind Visibility
130° at 3 knots 10 miles
Clouds
  • Clear skies
Temperature Dewpoint
2°C / 36°F -1°C / 30°F
Humidity Altimeter Pressure
81% 30.22" Hg 1023.3 hPa